Terminal Aerodrome Forecast
Issued by NWS Tiyan, Guam

Home | Current Version | Previous Version | Text Only | Print | Product List | Glossary On
Versions: 1 2 3 4 5 6 7 8 9 10 11 12 13 14 15 16 17 18 19 20 21 22 23 24 25 26 27
000
FTPQ31 PGUM 200714 AAA
TAFGUM
TAF AMD
PGUM 200714Z 2007/2112 11015KT P6SM VCSH FEW015 BKN030
      TEMPO 2007/2009 4SM SHRA SCT015 OVC030
     FM201000 11008KT P6SM VCSH FEW018 SCT030
     FM210100 10015KT P6SM VCSH SCT024=

USA.gov is the U.S. government's official web portal to all federal, state and local government web resources and services.